Camp Rogers, Georgia
Current Conditions -  °F | °C
As of 10:58 AM on Friday 31 Oct 2014 (Local Time) from KLSF Reporting Station
Clear Clear  
Wind Chill: 57°   Ceiling: Unl
Heat Index: 57°   Visibility: 10mi
Dew Point: 44°   Wind: 6mph
Humidity: 62%   Direction: 350°N
Pressure: 29.97"   Gusts: NA
Location:  32.373°N, 84.7961°W
Report Text: KLSF 311458Z AUTO 35005KT 10SM CLR 14/07 A2997 RMK AO2 SLP152 T01390068 50002
Loading
Personal Weather Stations






























Interactive Weather Map
Tropical Storm Tracking
New forecast layout! Learn more

10-Day Weather Forecast

Advertisements
Track Severe Weather on mobile